Time;durP1;ratioP1;P1;durP2;ratioP2;P2;SDS_P1;SDS_P2;PMS_P1;PMS_P2;Temp;Humidity;BMP_temperature;BMP_pressure;BME280_temperature;BME280_humidity;BME280_pressure;Samples;Min_cycle;Max_cycle;Signal;HPM_P1;HPM_P2
2022/07/13 00:02:14;;;;;;;5.73;3.10;;;;;;;;;;745361;187;631347;-58
2022/07/13 00:04:40;;;;;;;5.50;2.93;;;;;;;;;;745632;187;619584;-56
2022/07/13 00:07:06;;;;;;;5.45;2.90;;;;;;;;;;736535;184;818340;-55
2022/07/13 00:09:31;;;;;;;7.77;3.23;;;;;;;;;;749356;183;922124;-57
2022/07/13 00:11:57;;;;;;;6.33;4.10;;;;;;;;;;734909;187;868371;-54
2022/07/13 00:14:23;;;;;;;4.33;3.00;;;;;;;;;;735116;189;919193;-58
2022/07/13 00:16:49;;;;;;;3.50;2.33;;;;;;;;;;736603;187;918571;-55
2022/07/13 00:19:15;;;;;;;4.40;2.70;;;;;;;;;;739739;187;816715;-55
2022/07/13 00:21:41;;;;;;;8.50;2.50;;;;;;;;;;739894;187;919497;-58
2022/07/13 00:24:06;;;;;;;3.70;2.20;;;;;;;;;;736815;187;945087;-57
2022/07/13 00:26:32;;;;;;;4.20;2.20;;;;;;;;;;737566;187;915875;-57
2022/07/13 00:28:58;;;;;;;3.50;2.30;;;;;;;;;;746013;187;820948;-58
2022/07/13 00:31:24;;;;;;;6.77;2.30;;;;;;;;;;729060;188;916467;-56
2022/07/13 00:33:50;;;;;;;3.80;2.03;;;;;;;;;;741202;187;877312;-56
2022/07/13 00:36:16;;;;;;;2.97;1.80;;;;;;;;;;744489;187;918217;-55
2022/07/13 00:38:42;;;;;;;7.80;2.03;;;;;;;;;;738451;187;922330;-55
2022/07/13 00:41:08;;;;;;;11.20;2.30;;;;;;;;;;744781;185;920183;-55
2022/07/13 00:43:34;;;;;;;3.77;2.40;;;;;;;;;;739796;187;916759;-57
2022/07/13 00:46:00;;;;;;;5.60;2.57;;;;;;;;;;745503;187;918451;-58
2022/07/13 00:48:25;;;;;;;3.43;2.17;;;;;;;;;;738033;187;917037;-55
2022/07/13 00:50:51;;;;;;;2.67;1.83;;;;;;;;;;737797;187;923737;-55
2022/07/13 00:53:17;;;;;;;8.63;1.80;;;;;;;;;;740879;188;816153;-58
2022/07/13 00:55:43;;;;;;;6.17;2.23;;;;;;;;;;740554;187;817192;-55
2022/07/13 00:58:09;;;;;;;4.40;2.00;;;;;;;;;;735256;188;919359;-58
2022/07/13 01:00:36;;;;;;;4.43;1.90;;;;;;;;;;741701;187;816807;-55
2022/07/13 01:03:00;;;;;;;6.40;2.40;;;;;;;;;;736275;189;916880;-55
2022/07/13 01:05:26;;;;;;;5.43;2.27;;;;;;;;;;738647;187;1018301;-58
2022/07/13 01:07:52;;;;;;;4.50;1.83;;;;;;;;;;745978;187;914535;-55
2022/07/13 01:10:18;;;;;;;3.80;2.10;;;;;;;;;;734606;187;1021033;-55
2022/07/13 01:12:44;;;;;;;3.63;2.10;;;;;;;;;;737867;188;918820;-55
2022/07/13 01:15:10;;;;;;;3.90;2.20;;;;;;;;;;739851;187;917862;-55
2022/07/13 01:17:36;;;;;;;3.23;2.10;;;;;;;;;;745644;187;918591;-55
2022/07/13 01:20:02;;;;;;;3.80;2.20;;;;;;;;;;737031;187;816070;-58
2022/07/13 01:22:28;;;;;;;2.90;2.30;;;;;;;;;;737496;187;919303;-55
2022/07/13 01:24:54;;;;;;;5.53;2.13;;;;;;;;;;747559;187;816692;-58
2022/07/13 01:27:20;;;;;;;4.47;2.97;;;;;;;;;;735173;189;920219;-57
2022/07/13 01:29:46;;;;;;;7.93;2.60;;;;;;;;;;739240;188;920202;-55
2022/07/13 01:32:13;;;;;;;6.90;2.13;;;;;;;;;;737635;187;918816;-57
2022/07/13 01:34:39;;;;;;;6.53;2.40;;;;;;;;;;734785;187;819188;-55
2022/07/13 01:37:05;;;;;;;4.23;2.30;;;;;;;;;;740497;187;1021032;-58
2022/07/13 01:39:30;;;;;;;4.73;2.27;;;;;;;;;;743870;186;915344;-54
2022/07/13 01:41:56;;;;;;;3.73;2.50;;;;;;;;;;747192;184;811911;-56
2022/07/13 01:44:22;;;;;;;4.00;2.40;;;;;;;;;;732669;190;908806;-55
2022/07/13 01:46:48;;;;;;;9.63;2.60;;;;;;;;;;738200;188;912514;-55
2022/07/13 01:49:14;;;;;;;3.35;2.10;;;;;;;;;;745820;187;815705;-56
2022/07/13 01:51:40;;;;;;;3.30;2.27;;;;;;;;;;743764;186;908948;-55
2022/07/13 01:54:05;;;;;;;4.53;3.20;;;;;;;;;;734113;190;919573;-55
2022/07/13 01:56:32;;;;;;;3.90;2.27;;;;;;;;;;742269;187;912163;-56
2022/07/13 01:58:59;;;;;;;3.93;2.30;;;;;;;;;;740864;187;917302;-57
2022/07/13 02:01:24;;;;;;;3.50;2.47;;;;;;;;;;743228;185;918879;-55
2022/07/13 02:03:50;;;;;;;4.60;2.50;;;;;;;;;;741053;188;628543;-56
2022/07/13 02:06:16;;;;;;;3.20;2.00;;;;;;;;;;740083;188;830269;-56
2022/07/13 02:08:42;;;;;;;4.40;1.90;;;;;;;;;;741341;186;915437;-58
2022/07/13 02:11:08;;;;;;;3.80;2.40;;;;;;;;;;738624;188;923155;-56
2022/07/13 02:13:34;;;;;;;4.70;2.53;;;;;;;;;;744945;187;918296;-55
2022/07/13 02:15:59;;;;;;;3.53;2.33;;;;;;;;;;739155;187;804477;-60
2022/07/13 02:18:25;;;;;;;8.53;2.10;;;;;;;;;;738507;191;921143;-55
2022/07/13 02:20:51;;;;;;;7.50;2.47;;;;;;;;;;750038;188;621633;-55
2022/07/13 02:23:17;;;;;;;4.13;2.27;;;;;;;;;;743507;184;818791;-55
2022/07/13 02:25:43;;;;;;;3.30;2.17;;;;;;;;;;738381;188;915544;-58
2022/07/13 02:28:09;;;;;;;4.43;2.17;;;;;;;;;;737438;188;919246;-55
2022/07/13 02:30:34;;;;;;;2.87;1.87;;;;;;;;;;736072;188;914881;-56
2022/07/13 02:33:00;;;;;;;3.33;1.97;;;;;;;;;;739426;187;918184;-55
2022/07/13 02:35:26;;;;;;;6.30;2.30;;;;;;;;;;745845;186;918481;-55
2022/07/13 02:37:52;;;;;;;7.60;2.40;;;;;;;;;;739452;187;912445;-59
2022/07/13 02:40:18;;;;;;;3.90;2.10;;;;;;;;;;739097;187;1021760;-55
2022/07/13 02:42:44;;;;;;;4.77;2.90;;;;;;;;;;746583;187;818047;-55
2022/07/13 02:45:10;;;;;;;3.97;2.23;;;;;;;;;;730034;191;919462;-54
2022/07/13 02:47:35;;;;;;;4.30;2.63;;;;;;;;;;737238;187;922752;-56
2022/07/13 02:50:01;;;;;;;4.03;2.27;;;;;;;;;;736950;187;920337;-54
2022/07/13 02:52:27;;;;;;;4.50;2.10;;;;;;;;;;739333;187;928318;-56
2022/07/13 02:54:53;;;;;;;3.57;2.27;;;;;;;;;;742284;186;817368;-56
2022/07/13 02:57:19;;;;;;;3.70;2.30;;;;;;;;;;736062;186;919049;-55
2022/07/13 02:59:45;;;;;;;6.70;2.50;;;;;;;;;;741653;187;929551;-56
2022/07/13 03:02:10;;;;;;;5.10;2.27;;;;;;;;;;746306;186;919810;-55
2022/07/13 03:04:37;;;;;;;4.60;2.30;;;;;;;;;;740440;187;819760;-56
2022/07/13 03:07:02;;;;;;;3.40;2.20;;;;;;;;;;735668;187;919413;-57
2022/07/13 03:09:28;;;;;;;4.77;2.70;;;;;;;;;;746159;187;718451;-55
2022/07/13 03:11:54;;;;;;;6.73;2.43;;;;;;;;;;740255;187;920307;-57
2022/07/13 03:14:20;;;;;;;3.70;2.53;;;;;;;;;;739947;187;815955;-56
2022/07/13 03:16:46;;;;;;;3.33;2.20;;;;;;;;;;742710;188;813845;-56
2022/07/13 03:19:12;;;;;;;4.40;2.83;;;;;;;;;;735012;187;919870;-56
2022/07/13 03:21:38;;;;;;;2.90;2.43;;;;;;;;;;736609;188;905444;-57
2022/07/13 03:24:03;;;;;;;4.13;2.87;;;;;;;;;;736808;189;917415;-55
2022/07/13 03:26:29;;;;;;;3.60;2.80;;;;;;;;;;741610;188;915587;-55
2022/07/13 03:28:55;;;;;;;4.40;2.60;;;;;;;;;;736863;187;1016869;-56
2022/07/13 03:31:21;;;;;;;5.53;2.47;;;;;;;;;;738912;188;936019;-58
2022/07/13 03:33:47;;;;;;;4.27;2.73;;;;;;;;;;740860;187;855610;-53
2022/07/13 03:36:13;;;;;;;5.10;2.00;;;;;;;;;;736317;185;919650;-58
2022/07/13 03:38:38;;;;;;;4.05;2.42;;;;;;;;;;727242;191;919830;-57
2022/07/13 03:41:05;;;;;;;4.53;2.60;;;;;;;;;;742493;187;817242;-54
2022/07/13 03:43:30;;;;;;;5.00;2.90;;;;;;;;;;735993;187;818160;-55
2022/07/13 03:45:57;;;;;;;3.80;2.40;;;;;;;;;;736552;188;921962;-58
2022/07/13 03:48:22;;;;;;;3.95;2.70;;;;;;;;;;739398;187;919659;-56
2022/07/13 03:50:48;;;;;;;4.00;2.47;;;;;;;;;;742572;187;853725;-56
2022/07/13 03:53:14;;;;;;;4.60;2.73;;;;;;;;;;737447;188;918897;-56
2022/07/13 03:55:40;;;;;;;5.07;2.57;;;;;;;;;;738912;187;913808;-55
2022/07/13 03:58:06;;;;;;;4.20;2.97;;;;;;;;;;744298;187;817856;-56
2022/07/13 04:00:31;;;;;;;4.30;2.70;;;;;;;;;;738920;187;918253;-55
2022/07/13 04:02:57;;;;;;;5.20;2.67;;;;;;;;;;737765;187;919169;-58
2022/07/13 04:05:23;;;;;;;4.27;2.43;;;;;;;;;;743156;187;917781;-58
2022/07/13 04:07:49;;;;;;;6.53;2.90;;;;;;;;;;739589;187;910746;-58
2022/07/13 04:10:15;;;;;;;4.43;2.90;;;;;;;;;;733360;187;917267;-56
2022/07/13 04:12:41;;;;;;;3.47;2.43;;;;;;;;;;738167;189;911975;-58
2022/07/13 04:15:07;;;;;;;4.60;3.10;;;;;;;;;;738753;187;917108;-55
2022/07/13 04:17:32;;;;;;;4.10;2.20;;;;;;;;;;739969;187;935280;-55
2022/07/13 04:19:58;;;;;;;9.73;2.90;;;;;;;;;;740310;183;914596;-58
2022/07/13 04:22:24;;;;;;;3.60;2.40;;;;;;;;;;739733;187;867734;-58
2022/07/13 04:24:50;;;;;;;6.03;2.60;;;;;;;;;;733710;187;919380;-56
2022/07/13 04:27:16;;;;;;;6.03;2.90;;;;;;;;;;739569;187;919240;-58
2022/07/13 04:29:42;;;;;;;4.50;2.73;;;;;;;;;;741880;187;918738;-55
2022/07/13 04:32:07;;;;;;;11.53;2.73;;;;;;;;;;740740;187;911129;-55
2022/07/13 04:34:33;;;;;;;6.40;2.87;;;;;;;;;;736633;187;918889;-56
2022/07/13 04:36:59;;;;;;;3.80;2.30;;;;;;;;;;745223;187;915753;-57
2022/07/13 04:39:25;;;;;;;6.60;3.77;;;;;;;;;;736841;186;816807;-55
2022/07/13 04:41:51;;;;;;;3.50;2.07;;;;;;;;;;736606;187;915371;-55
2022/07/13 04:44:17;;;;;;;3.83;2.10;;;;;;;;;;739573;187;816802;-57
2022/07/13 04:46:42;;;;;;;3.70;2.30;;;;;;;;;;731675;190;913739;-58
2022/07/13 04:49:08;;;;;;;4.57;2.00;;;;;;;;;;739079;187;776889;-57
2022/07/13 04:51:35;;;;;;;3.23;1.77;;;;;;;;;;738911;189;813769;-61
2022/07/13 04:54:00;;;;;;;4.67;2.40;;;;;;;;;;742916;187;894537;-56
2022/07/13 04:56:26;;;;;;;5.10;2.70;;;;;;;;;;738872;187;823419;-58
2022/07/13 04:58:52;;;;;;;3.60;2.40;;;;;;;;;;740180;184;919052;-55
2022/07/13 05:01:18;;;;;;;3.50;2.30;;;;;;;;;;738832;189;918631;-55
2022/07/13 05:03:43;;;;;;;4.43;2.50;;;;;;;;;;735554;187;818505;-55
2022/07/13 05:06:09;;;;;;;3.37;2.10;;;;;;;;;;736776;187;916671;-57
2022/07/13 05:08:35;;;;;;;4.30;2.10;;;;;;;;;;743213;187;718594;-57
2022/07/13 05:11:01;;;;;;;5.50;2.50;;;;;;;;;;737968;187;920234;-54
2022/07/13 05:13:27;;;;;;;10.00;2.20;;;;;;;;;;740039;187;918938;-57
2022/07/13 05:15:53;;;;;;;5.03;2.53;;;;;;;;;;743388;187;918404;-56
2022/07/13 05:18:18;;;;;;;3.73;2.03;;;;;;;;;;741588;187;919611;-54
2022/07/13 05:20:44;;;;;;;6.03;2.27;;;;;;;;;;737973;183;922335;-54
2022/07/13 05:23:10;;;;;;;7.18;1.75;;;;;;;;;;733538;189;917843;-58
2022/07/13 05:25:36;;;;;;;5.00;1.87;;;;;;;;;;741361;187;1035073;-54
2022/07/13 05:28:03;;;;;;;4.50;2.50;;;;;;;;;;741326;187;817696;-55
2022/07/13 05:30:28;;;;;;;9.50;2.50;;;;;;;;;;745165;187;786579;-56
2022/07/13 05:32:53;;;;;;;7.17;2.17;;;;;;;;;;745031;188;813757;-58
2022/07/13 05:35:19;;;;;;;6.33;2.30;;;;;;;;;;743928;185;814180;-56
2022/07/13 05:37:45;;;;;;;3.25;2.05;;;;;;;;;;731800;187;924771;-55
2022/07/13 05:40:12;;;;;;;8.63;2.20;;;;;;;;;;737565;189;916199;-57
2022/07/13 05:42:37;;;;;;;2.97;1.63;;;;;;;;;;733284;190;819966;-54
2022/07/13 05:45:03;;;;;;;4.80;2.20;;;;;;;;;;741144;187;793359;-57
2022/07/13 05:47:30;;;;;;;4.20;2.30;;;;;;;;;;731587;190;817300;-56
2022/07/13 05:49:56;;;;;;;3.37;2.10;;;;;;;;;;742538;189;812608;-55
2022/07/13 05:52:22;;;;;;;5.87;2.53;;;;;;;;;;742724;188;922452;-55
2022/07/13 05:54:47;;;;;;;4.43;2.27;;;;;;;;;;738890;187;820765;-57
2022/07/13 05:57:13;;;;;;;3.60;1.90;;;;;;;;;;741829;187;816765;-57
2022/07/13 05:59:39;;;;;;;2.90;2.10;;;;;;;;;;738227;187;918449;-57
2022/07/13 06:02:05;;;;;;;7.33;2.00;;;;;;;;;;734151;187;899874;-57
2022/07/13 06:04:31;;;;;;;4.37;2.07;;;;;;;;;;732211;187;919311;-58
2022/07/13 06:06:57;;;;;;;3.43;1.70;;;;;;;;;;742731;187;624232;-56
2022/07/13 06:09:23;;;;;;;3.00;1.80;;;;;;;;;;745060;187;628981;-54
2022/07/13 06:11:48;;;;;;;7.50;3.60;;;;;;;;;;735238;187;818321;-55
2022/07/13 06:14:14;;;;;;;3.80;1.77;;;;;;;;;;744824;187;716454;-54
2022/07/13 06:16:40;;;;;;;3.17;1.70;;;;;;;;;;740081;187;817102;-59
2022/07/13 06:19:06;;;;;;;4.17;2.00;;;;;;;;;;736288;188;894848;-55
2022/07/13 06:21:32;;;;;;;4.20;1.80;;;;;;;;;;743174;187;919075;-55
2022/07/13 06:23:58;;;;;;;5.30;2.90;;;;;;;;;;736628;187;919195;-58
2022/07/13 06:26:23;;;;;;;3.73;1.70;;;;;;;;;;736721;189;906917;-56
2022/07/13 06:28:49;;;;;;;2.97;1.80;;;;;;;;;;740657;187;1020615;-58
2022/07/13 06:31:15;;;;;;;6.80;2.00;;;;;;;;;;736464;187;919007;-55
2022/07/13 06:33:42;;;;;;;3.40;1.50;;;;;;;;;;734437;187;1044360;-56
2022/07/13 06:36:08;;;;;;;3.57;1.47;;;;;;;;;;739084;187;917679;-59
2022/07/13 06:38:33;;;;;;;6.13;1.73;;;;;;;;;;744648;187;921955;-56
2022/07/13 06:40:59;;;;;;;3.27;1.70;;;;;;;;;;738134;187;868508;-58
2022/07/13 06:43:25;;;;;;;5.80;1.77;;;;;;;;;;738336;187;916663;-55
2022/07/13 06:45:51;;;;;;;4.93;2.00;;;;;;;;;;748418;187;903814;-56
2022/07/13 06:48:17;;;;;;;7.60;2.30;;;;;;;;;;735461;187;920278;-56
2022/07/13 06:50:43;;;;;;;5.20;1.90;;;;;;;;;;735835;188;928579;-55
2022/07/13 06:53:08;;;;;;;3.37;1.60;;;;;;;;;;743268;187;918643;-55
2022/07/13 06:55:34;;;;;;;3.20;1.80;;;;;;;;;;737061;187;918941;-54
2022/07/13 06:58:00;;;;;;;4.15;2.08;;;;;;;;;;736625;187;918923;-55
2022/07/13 07:00:26;;;;;;;3.47;1.90;;;;;;;;;;727861;187;918901;-58
2022/07/13 07:02:52;;;;;;;5.93;2.23;;;;;;;;;;744757;186;803802;-55
2022/07/13 07:05:18;;;;;;;4.35;1.70;;;;;;;;;;738803;187;920723;-57
2022/07/13 07:07:44;;;;;;;5.70;1.60;;;;;;;;;;734293;187;898461;-56
2022/07/13 07:10:10;;;;;;;3.90;1.93;;;;;;;;;;746042;187;989750;-58
2022/07/13 07:12:35;;;;;;;3.65;1.62;;;;;;;;;;731749;187;818502;-59
2022/07/13 07:15:01;;;;;;;8.03;1.73;;;;;;;;;;731748;191;919307;-55
2022/07/13 07:17:27;;;;;;;6.13;1.80;;;;;;;;;;746903;185;878363;-57
2022/07/13 07:19:58;;;;;;;5.90;1.70;;;;;;;;;;729120;191;919454;-56
2022/07/13 07:22:24;;;;;;;4.50;1.60;;;;;;;;;;737517;189;913548;-59
2022/07/13 07:24:51;;;;;;;8.00;1.97;;;;;;;;;;736924;187;921570;-57
2022/07/13 07:27:15;;;;;;;3.30;1.50;;;;;;;;;;739702;187;918374;-58
2022/07/13 07:29:41;;;;;;;5.73;1.77;;;;;;;;;;736564;187;917924;-56
2022/07/13 07:32:07;;;;;;;3.00;1.73;;;;;;;;;;739127;187;903665;-55
2022/07/13 07:34:34;;;;;;;8.30;2.30;;;;;;;;;;742774;187;819414;-55
2022/07/13 07:37:01;;;;;;;6.27;2.10;;;;;;;;;;740780;187;816911;-56
2022/07/13 07:39:27;;;;;;;2.30;1.40;;;;;;;;;;736964;187;921418;-55
2022/07/13 07:41:54;;;;;;;3.40;1.70;;;;;;;;;;737807;187;908983;-56
2022/07/13 07:44:21;;;;;;;5.90;2.00;;;;;;;;;;739893;188;911579;-57
2022/07/13 07:46:47;;;;;;;3.80;1.90;;;;;;;;;;738005;187;921479;-58
2022/07/13 07:49:12;;;;;;;3.90;1.87;;;;;;;;;;737916;187;921338;-55
2022/07/13 07:51:38;;;;;;;4.07;1.90;;;;;;;;;;743518;187;817336;-57
2022/07/13 07:54:04;;;;;;;6.40;2.30;;;;;;;;;;739660;188;920881;-56
2022/07/13 07:56:30;;;;;;;3.20;2.27;;;;;;;;;;741406;187;817352;-56
2022/07/13 07:58:56;;;;;;;7.47;2.20;;;;;;;;;;743232;187;818511;-58
2022/07/13 08:01:22;;;;;;;4.10;1.87;;;;;;;;;;738032;187;917787;-58
2022/07/13 08:03:48;;;;;;;2.65;1.62;;;;;;;;;;739439;186;918725;-55
2022/07/13 08:06:14;;;;;;;3.53;1.40;;;;;;;;;;743278;186;918867;-58
2022/07/13 08:08:39;;;;;;;4.93;2.47;;;;;;;;;;734724;187;913586;-55
2022/07/13 08:11:07;;;;;;;6.00;1.70;;;;;;;;;;736975;188;918559;-57
2022/07/13 08:13:31;;;;;;;3.57;1.83;;;;;;;;;;736625;187;816995;-55
2022/07/13 08:15:57;;;;;;;5.73;1.73;;;;;;;;;;744263;187;919820;-59
2022/07/13 08:18:23;;;;;;;6.00;2.00;;;;;;;;;;736544;187;920056;-57
2022/07/13 08:20:49;;;;;;;2.90;1.80;;;;;;;;;;739938;187;816468;-55
2022/07/13 08:25:46;;;;;;;4.57;1.50;;;;;;;;;;747671;187;914000;-57
2022/07/13 08:28:12;;;;;;;3.08;1.77;;;;;;;;;;737143;187;905089;-56
2022/07/13 08:30:41;;;;;;;8.73;1.53;;;;;;;;;;737022;187;918369;-54
2022/07/13 08:33:04;;;;;;;2.70;1.60;;;;;;;;;;738998;187;917614;-55
2022/07/13 08:40:34;;;;;;;2.73;1.60;;;;;;;;;;736583;188;909026;-57
2022/07/13 08:43:00;;;;;;;3.10;1.40;;;;;;;;;;744755;187;829250;-55
2022/07/13 08:45:26;;;;;;;7.23;1.60;;;;;;;;;;737115;187;918356;-55
2022/07/13 08:47:52;;;;;;;3.00;1.60;;;;;;;;;;743801;187;824449;-58
2022/07/13 08:50:19;;;;;;;6.90;1.70;;;;;;;;;;738750;187;917465;-55
2022/07/13 08:52:44;;;;;;;7.17;1.67;;;;;;;;;;737137;187;818583;-54
2022/07/13 08:55:10;;;;;;;2.97;1.53;;;;;;;;;;739489;187;919099;-55
2022/07/13 08:57:36;;;;;;;3.30;1.50;;;;;;;;;;738291;187;842369;-57
2022/07/13 09:00:04;;;;;;;11.50;2.03;;;;;;;;;;743322;186;807655;-57
2022/07/13 09:02:28;;;;;;;2.53;1.40;;;;;;;;;;734571;188;974853;-56
2022/07/13 09:04:53;;;;;;;5.03;1.20;;;;;;;;;;738134;187;915574;-56
2022/07/13 09:07:19;;;;;;;2.40;1.33;;;;;;;;;;743654;187;702998;-59
2022/07/13 09:09:45;;;;;;;4.00;1.63;;;;;;;;;;738769;188;1018502;-56
2022/07/13 09:12:11;;;;;;;5.90;1.30;;;;;;;;;;737316;187;917555;-57
2022/07/13 09:14:37;;;;;;;3.00;1.40;;;;;;;;;;744866;187;919576;-55
2022/07/13 09:17:03;;;;;;;3.00;1.30;;;;;;;;;;736555;187;908542;-54
2022/07/13 09:19:33;;;;;;;3.10;1.47;;;;;;;;;;739621;187;953575;-56
2022/07/13 09:22:07;;;;;;;3.77;1.40;;;;;;;;;;738030;187;916983;-59
2022/07/13 09:24:39;;;;;;;6.17;1.37;;;;;;;;;;740453;187;914757;-60
2022/07/13 09:27:05;;;;;;;3.73;1.30;;;;;;;;;;744367;187;915765;-56
2022/07/13 09:29:31;;;;;;;2.77;1.43;;;;;;;;;;738099;187;1083504;-57
2022/07/13 09:31:58;;;;;;;5.03;1.70;;;;;;;;;;738068;186;918757;-59
2022/07/13 09:34:22;;;;;;;2.27;1.30;;;;;;;;;;744532;187;920902;-59
2022/07/13 09:36:48;;;;;;;7.30;1.60;;;;;;;;;;739726;186;818577;-57
2022/07/13 09:39:14;;;;;;;2.57;1.23;;;;;;;;;;733540;187;838020;-56
2022/07/13 09:41:40;;;;;;;6.90;1.50;;;;;;;;;;743417;187;690434;-59
2022/07/13 09:46:37;;;;;;;3.80;1.53;;;;;;;;;;738148;187;908872;-55
2022/07/13 09:49:05;;;;;;;3.30;1.70;;;;;;;;;;729104;191;814696;-55
2022/07/13 09:51:30;;;;;;;5.62;1.62;;;;;;;;;;741414;188;919235;-57
2022/07/13 09:53:56;;;;;;;2.77;1.27;;;;;;;;;;738343;187;817335;-54
2022/07/13 09:56:23;;;;;;;2.57;1.43;;;;;;;;;;739557;187;816394;-55
2022/07/13 09:58:48;;;;;;;3.00;1.47;;;;;;;;;;744094;187;849131;-55
2022/07/13 10:01:14;;;;;;;2.50;1.40;;;;;;;;;;738053;187;816881;-57
2022/07/13 10:03:40;;;;;;;2.20;1.17;;;;;;;;;;736670;187;835733;-55
2022/07/13 10:06:06;;;;;;;3.50;1.27;;;;;;;;;;734862;189;1053349;-57
2022/07/13 10:08:32;;;;;;;3.13;1.30;;;;;;;;;;741624;187;918951;-66
2022/07/13 10:10:58;;;;;;;2.30;1.30;;;;;;;;;;758342;175;918579;-81
2022/07/13 10:13:24;;;;;;;3.40;1.27;;;;;;;;;;773686;177;662794;-81
2022/07/13 10:15:50;;;;;;;2.93;1.37;;;;;;;;;;774305;178;625588;-80
2022/07/13 10:18:17;;;;;;;3.40;1.43;;;;;;;;;;770953;179;776573;-79
2022/07/13 10:20:42;;;;;;;2.20;1.20;;;;;;;;;;770996;179;675291;-80
2022/07/13 10:23:09;;;;;;;2.63;1.07;;;;;;;;;;769639;179;635901;-81
2022/07/13 10:25:40;;;;;;;2.47;1.30;;;;;;;;;;767275;179;631826;-80
2022/07/13 10:28:07;;;;;;;2.10;1.20;;;;;;;;;;768625;177;629047;-81
2022/07/13 10:30:32;;;;;;;2.50;1.30;;;;;;;;;;765907;179;676957;-79
2022/07/13 10:33:04;;;;;;;2.90;1.17;;;;;;;;;;772779;179;638387;-80
2022/07/13 10:35:29;;;;;;;6.53;1.30;;;;;;;;;;767404;179;657696;-79
2022/07/13 10:38:13;;;;;;;2.07;1.10;;;;;;;;;;764721;176;622079;-59
2022/07/13 10:40:40;;;;;;;2.50;1.13;;;;;;;;;;781516;177;818925;-61
2022/07/13 10:43:08;;;;;;;2.43;1.40;;;;;;;;;;778290;177;921643;-66
2022/07/13 10:45:43;;;;;;;2.10;1.05;;;;;;;;;;767903;181;913994;-64
2022/07/13 10:48:14;;;;;;;2.13;1.00;;;;;;;;;;767295;179;715981;-60
2022/07/13 10:50:44;;;;;;;6.97;1.17;;;;;;;;;;768775;179;635255;-65
2022/07/13 10:53:10;;;;;;;2.53;1.20;;;;;;;;;;763899;179;920660;-64
2022/07/13 10:55:36;;;;;;;2.57;1.50;;;;;;;;;;770619;180;816720;-61
2022/07/13 10:58:08;;;;;;;2.43;1.23;;;;;;;;;;768389;180;897510;-64
2022/07/13 11:00:36;;;;;;;2.67;1.30;;;;;;;;;;765447;179;917890;-68
2022/07/13 11:03:04;;;;;;;3.57;1.40;;;;;;;;;;767736;179;918275;-64
2022/07/13 11:05:33;;;;;;;3.37;1.63;;;;;;;;;;770407;180;917991;-58
2022/07/13 11:07:56;;;;;;;2.60;1.10;;;;;;;;;;766031;179;919362;-66
2022/07/13 11:10:24;;;;;;;2.40;1.30;;;;;;;;;;767542;179;901574;-60
2022/07/13 11:12:55;;;;;;;2.17;1.20;;;;;;;;;;766764;179;816403;-65
2022/07/13 11:15:21;;;;;;;2.50;1.30;;;;;;;;;;773214;181;919418;-63
2022/07/13 11:17:57;;;;;;;3.57;1.20;;;;;;;;;;764828;180;921855;-58
2022/07/13 11:20:23;;;;;;;3.40;1.37;;;;;;;;;;765506;181;916586;-59
2022/07/13 11:25:36;;;;;;;3.30;1.60;;;;;;;;;;766786;180;910299;-59
2022/07/13 11:28:03;;;;;;;2.73;1.57;;;;;;;;;;774779;180;874424;-61
2022/07/13 11:30:29;;;;;;;3.10;1.27;;;;;;;;;;768519;180;846452;-64
2022/07/13 11:32:54;;;;;;;3.07;1.70;;;;;;;;;;765094;179;940818;-65
2022/07/13 11:35:21;;;;;;;3.50;1.57;;;;;;;;;;772781;178;817459;-63
2022/07/13 11:37:47;;;;;;;4.53;1.40;;;;;;;;;;778720;180;624569;-65
2022/07/13 11:40:12;;;;;;;2.20;1.30;;;;;;;;;;767789;180;786441;-65
2022/07/13 11:42:38;;;;;;;4.00;1.30;;;;;;;;;;765340;179;919921;-64
2022/07/13 11:45:05;;;;;;;3.40;1.20;;;;;;;;;;770726;180;919515;-64
2022/07/13 11:47:31;;;;;;;3.00;1.33;;;;;;;;;;768560;179;918461;-66
2022/07/13 11:49:56;;;;;;;3.83;1.33;;;;;;;;;;767198;180;922677;-65
2022/07/13 11:52:24;;;;;;;4.43;1.10;;;;;;;;;;770900;181;858004;-62
2022/07/13 11:54:54;;;;;;;2.13;1.40;;;;;;;;;;770480;180;921942;-64
2022/07/13 11:57:19;;;;;;;2.97;1.30;;;;;;;;;;767286;179;918685;-61
2022/07/13 11:59:45;;;;;;;3.03;1.80;;;;;;;;;;765126;181;1024015;-59
2022/07/13 12:02:11;;;;;;;4.43;1.73;;;;;;;;;;770108;179;920838;-64
2022/07/13 12:04:41;;;;;;;4.53;1.60;;;;;;;;;;765273;181;930003;-63
2022/07/13 12:07:13;;;;;;;2.70;1.30;;;;;;;;;;764210;181;814980;-61
2022/07/13 12:09:53;;;;;;;3.90;1.70;;;;;;;;;;765907;180;828070;-61
2022/07/13 12:12:19;;;;;;;3.23;1.77;;;;;;;;;;769423;180;916482;-60
2022/07/13 12:14:45;;;;;;;2.97;1.47;;;;;;;;;;775259;180;818224;-63
2022/07/13 12:17:11;;;;;;;3.83;1.40;;;;;;;;;;763184;179;913768;-67
2022/07/13 12:19:36;;;;;;;2.60;1.50;;;;;;;;;;767277;181;798601;-64
2022/07/13 12:22:02;;;;;;;3.50;1.87;;;;;;;;;;771379;180;712705;-66
2022/07/13 12:24:29;;;;;;;2.93;1.47;;;;;;;;;;766533;179;906255;-60
2022/07/13 12:26:54;;;;;;;2.40;1.40;;;;;;;;;;767113;179;919442;-65
2022/07/13 12:29:27;;;;;;;9.93;1.93;;;;;;;;;;769916;179;918466;-69
2022/07/13 12:31:52;;;;;;;2.40;1.40;;;;;;;;;;765231;180;889979;-64
2022/07/13 12:34:20;;;;;;;2.43;1.50;;;;;;;;;;765814;179;919009;-67
2022/07/13 12:36:44;;;;;;;2.63;1.27;;;;;;;;;;771567;179;743107;-63
2022/07/13 12:39:10;;;;;;;5.67;1.40;;;;;;;;;;776697;180;618580;-69
2022/07/13 12:41:40;;;;;;;2.53;1.40;;;;;;;;;;765768;180;816512;-63
2022/07/13 12:44:02;;;;;;;4.60;1.65;;;;;;;;;;770401;180;760132;-66
2022/07/13 12:46:27;;;;;;;2.40;1.30;;;;;;;;;;772391;178;821950;-67
2022/07/13 12:48:57;;;;;;;2.90;1.33;;;;;;;;;;767670;178;916080;-63
2022/07/13 12:51:23;;;;;;;6.40;1.67;;;;;;;;;;770482;180;918863;-67
2022/07/13 12:53:53;;;;;;;7.13;2.27;;;;;;;;;;771640;180;625388;-67
2022/07/13 12:56:18;;;;;;;7.20;1.90;;;;;;;;;;775464;178;614556;-65
2022/07/13 12:58:47;;;;;;;2.57;1.30;;;;;;;;;;770434;179;646532;-65
2022/07/13 13:01:11;;;;;;;9.67;1.67;;;;;;;;;;768413;179;633334;-65
2022/07/13 13:03:37;;;;;;;3.40;1.10;;;;;;;;;;769073;179;620541;-64
2022/07/13 13:06:03;;;;;;;2.63;1.40;;;;;;;;;;771383;180;677601;-68
2022/07/13 13:08:28;;;;;;;2.40;1.40;;;;;;;;;;774217;179;630086;-67
2022/07/13 13:10:54;;;;;;;2.40;1.50;;;;;;;;;;773114;179;634103;-65
2022/07/13 13:13:20;;;;;;;4.23;1.50;;;;;;;;;;763462;182;617254;-65
2022/07/13 13:15:46;;;;;;;2.30;1.20;;;;;;;;;;768704;180;626681;-71
2022/07/13 13:18:12;;;;;;;19.23;2.23;;;;;;;;;;773116;180;624691;-68
2022/07/13 13:20:38;;;;;;;2.10;1.10;;;;;;;;;;775549;181;629138;-72
2022/07/13 13:23:04;;;;;;;2.40;1.40;;;;;;;;;;771966;180;627826;-65
2022/07/13 13:25:29;;;;;;;2.30;1.20;;;;;;;;;;771025;180;630928;-65
2022/07/13 13:27:55;;;;;;;2.83;1.50;;;;;;;;;;775719;180;627455;-65
2022/07/13 13:32:53;;;;;;;3.17;1.70;;;;;;;;;;769424;181;624233;-69
2022/07/13 13:35:19;;;;;;;2.30;1.63;;;;;;;;;;770470;179;638042;-65
2022/07/13 13:37:46;;;;;;;2.30;1.30;;;;;;;;;;775027;180;641968;-64
2022/07/13 13:40:11;;;;;;;2.60;1.50;;;;;;;;;;770436;179;627276;-65
2022/07/13 13:42:37;;;;;;;2.90;1.50;;;;;;;;;;769189;179;839628;-70
2022/07/13 13:45:03;;;;;;;2.40;1.57;;;;;;;;;;774421;179;633786;-64
2022/07/13 13:47:29;;;;;;;3.50;1.50;;;;;;;;;;773187;179;640982;-66
2022/07/13 13:49:55;;;;;;;4.40;1.10;;;;;;;;;;772611;180;626789;-65
2022/07/13 13:52:20;;;;;;;3.27;1.10;;;;;;;;;;773681;180;638655;-69
2022/07/13 13:54:46;;;;;;;2.40;1.20;;;;;;;;;;772328;180;634821;-66
2022/07/13 13:57:12;;;;;;;2.57;1.17;;;;;;;;;;771951;179;620021;-68
2022/07/13 13:59:38;;;;;;;3.23;1.67;;;;;;;;;;771314;181;628062;-67
2022/07/13 14:02:04;;;;;;;2.67;1.30;;;;;;;;;;775791;179;618896;-64
2022/07/13 14:04:30;;;;;;;4.77;1.20;;;;;;;;;;770827;179;637462;-65
2022/07/13 14:06:56;;;;;;;3.17;1.63;;;;;;;;;;771622;181;627275;-67
2022/07/13 14:09:21;;;;;;;2.67;1.47;;;;;;;;;;775603;182;616526;-69
2022/07/13 14:11:47;;;;;;;5.67;2.97;;;;;;;;;;770837;179;659850;-70
2022/07/13 14:14:13;;;;;;;2.57;1.40;;;;;;;;;;770948;180;638823;-66
2022/07/13 14:16:39;;;;;;;2.40;1.40;;;;;;;;;;776578;180;617215;-71
2022/07/13 14:19:05;;;;;;;2.70;1.50;;;;;;;;;;770553;181;631068;-65
2022/07/13 14:21:31;;;;;;;3.07;1.60;;;;;;;;;;773309;180;623659;-66
2022/07/13 14:23:56;;;;;;;2.70;1.40;;;;;;;;;;769443;179;657339;-66
2022/07/13 14:26:22;;;;;;;5.70;2.03;;;;;;;;;;773762;179;631881;-66
2022/07/13 14:28:48;;;;;;;4.30;1.47;;;;;;;;;;771868;180;634930;-66
2022/07/13 14:31:14;;;;;;;6.03;1.40;;;;;;;;;;771812;180;632343;-66
2022/07/13 14:33:40;;;;;;;2.73;1.40;;;;;;;;;;774752;179;617013;-71
2022/07/13 14:36:06;;;;;;;3.30;1.80;;;;;;;;;;771221;179;616488;-75
2022/07/13 14:38:32;;;;;;;4.77;1.60;;;;;;;;;;772853;180;619256;-75